Grand Isle, Vermont
Current Conditions -  °F | °C
As of 3:53 PM on Thursday 23 Oct 2014 (Local Time) from KPBG Reporting Station
Moderate Rain Moderate Rain  
Wind Chill: 38°   Ceiling: 1300
Heat Index: 45°   Visibility: 8mi
Dew Point: 43°   Wind: 17mph
Humidity: 93%   Direction: 360°N
Pressure: 29.95"   Gusts: NA
Location:  44.72°N, 73.29°W
Report Text: KPBG 231953Z AUTO 36015KT 8SM RA OVC013 07/06 A2995 RMK AO2 SLP142 P0007 T00720061
Loading
Personal Weather Stations






























Interactive Weather Map
Tropical Storm Tracking
New forecast layout! Learn more

10-Day Weather Forecast

Advertisements
Track Severe Weather on mobile